sensor_id;sensor_type;location;lat;lon;timestamp;pressure;altitude;pressure_sealevel;temperature;humidity
52319;BME280;38258;51.148;14.068;2022-08-11T00:00:06;99012.16;;;10.99;100.00
52319;BME280;38258;51.148;14.068;2022-08-11T00:02:35;99090.81;;;11.36;100.00
52319;BME280;38258;51.148;14.068;2022-08-11T00:05:07;99091.88;;;11.28;100.00
52319;BME280;38258;51.148;14.068;2022-08-11T00:07:41;99089.59;;;11.10;100.00
52319;BME280;38258;51.148;14.068;2022-08-11T00:10:11;99101.03;;;11.04;100.00
52319;BME280;38258;51.148;14.068;2022-08-11T00:12:40;99072.94;;;10.65;100.00
52319;BME280;38258;51.148;14.068;2022-08-11T00:15:09;99007.13;;;10.38;100.00
52319;BME280;38258;51.148;14.068;2022-08-11T00:17:37;99107.75;;;10.70;100.00
52319;BME280;38258;51.148;14.068;2022-08-11T00:20:08;99104.03;;;10.84;100.00
52319;BME280;38258;51.148;14.068;2022-08-11T00:22:37;99088.03;;;10.51;100.00
52319;BME280;38258;51.148;14.068;2022-08-11T00:25:10;99101.38;;;10.33;100.00
52319;BME280;38258;51.148;14.068;2022-08-11T00:27:39;99099.59;;;10.36;100.00
52319;BME280;38258;51.148;14.068;2022-08-11T00:30:08;99099.72;;;10.25;100.00
52319;BME280;38258;51.148;14.068;2022-08-11T00:32:35;99091.34;;;10.04;100.00
52319;BME280;38258;51.148;14.068;2022-08-11T00:35:04;99112.97;;;10.14;100.00
52319;BME280;38258;51.148;14.068;2022-08-11T00:37:34;99112.13;;;10.13;100.00
52319;BME280;38258;51.148;14.068;2022-08-11T00:40:04;99111.94;;;10.26;100.00
52319;BME280;38258;51.148;14.068;2022-08-11T00:42:44;99121.69;;;10.14;100.00
52319;BME280;38258;51.148;14.068;2022-08-11T00:45:21;99119.31;;;9.96;100.00
52319;BME280;38258;51.148;14.068;2022-08-11T00:47:58;99116.88;;;9.85;100.00
52319;BME280;38258;51.148;14.068;2022-08-11T00:50:39;99117.59;;;9.96;100.00
52319;BME280;38258;51.148;14.068;2022-08-11T00:53:24;99123.19;;;9.70;100.00
52319;BME280;38258;51.148;14.068;2022-08-11T00:56:17;99117.94;;;9.70;100.00
52319;BME280;38258;51.148;14.068;2022-08-11T00:59:14;99110.97;;;9.70;100.00
52319;BME280;38258;51.148;14.068;2022-08-11T01:01:57;99103.22;;;9.64;100.00
52319;BME280;38258;51.148;14.068;2022-08-11T01:04:55;99101.75;;;9.41;100.00
52319;BME280;38258;51.148;14.068;2022-08-11T01:07:56;99106.69;;;9.65;100.00
52319;BME280;38258;51.148;14.068;2022-08-11T01:10:53;99076.63;;;9.31;100.00
52319;BME280;38258;51.148;14.068;2022-08-11T01:13:45;99107.69;;;9.54;100.00
52319;BME280;38258;51.148;14.068;2022-08-11T01:16:45;99093.13;;;9.36;100.00
52319;BME280;38258;51.148;14.068;2022-08-11T01:19:49;99110.53;;;9.36;100.00
52319;BME280;38258;51.148;14.068;2022-08-11T01:22:58;99108.03;;;9.26;100.00
52319;BME280;38258;51.148;14.068;2022-08-11T01:25:51;99110.31;;;9.53;100.00
52319;BME280;38258;51.148;14.068;2022-08-11T01:32:14;99093.34;;;9.14;100.00
52319;BME280;38258;51.148;14.068;2022-08-11T01:35:25;99108.88;;;9.28;100.00
52319;BME280;38258;51.148;14.068;2022-08-11T01:38:24;99111.34;;;9.38;100.00
52319;BME280;38258;51.148;14.068;2022-08-11T01:41:14;99104.72;;;9.10;100.00
52319;BME280;38258;51.148;14.068;2022-08-11T01:44:12;99107.16;;;9.24;100.00
52319;BME280;38258;51.148;14.068;2022-08-11T01:47:08;99093.22;;;9.25;100.00
52319;BME280;38258;51.148;14.068;2022-08-11T01:50:07;99096.81;;;9.16;100.00
52319;BME280;38258;51.148;14.068;2022-08-11T01:52:52;99097.09;;;8.90;100.00
52319;BME280;38258;51.148;14.068;2022-08-11T01:55:28;99074.50;;;8.87;100.00
52319;BME280;38258;51.148;14.068;2022-08-11T01:58:06;99100.59;;;8.90;100.00
52319;BME280;38258;51.148;14.068;2022-08-11T02:00:39;99082.66;;;8.53;100.00
52319;BME280;38258;51.148;14.068;2022-08-11T02:03:14;99073.97;;;8.53;100.00
52319;BME280;38258;51.148;14.068;2022-08-11T02:05:56;99091.38;;;8.52;100.00
52319;BME280;38258;51.148;14.068;2022-08-11T02:08:39;99098.16;;;8.67;100.00
52319;BME280;38258;51.148;14.068;2022-08-11T02:11:17;99089.38;;;8.79;100.00
52319;BME280;38258;51.148;14.068;2022-08-11T02:14:00;99100.59;;;8.87;100.00
52319;BME280;38258;51.148;14.068;2022-08-11T02:16:38;99099.00;;;8.72;100.00
52319;BME280;38258;51.148;14.068;2022-08-11T02:19:17;99055.88;;;8.31;100.00
52319;BME280;38258;51.148;14.068;2022-08-11T02:22:05;99092.25;;;8.48;100.00
52319;BME280;38258;51.148;14.068;2022-08-11T02:24:59;99098.16;;;8.67;100.00
52319;BME280;38258;51.148;14.068;2022-08-11T02:27:35;99086.09;;;8.61;100.00
52319;BME280;38258;51.148;14.068;2022-08-11T02:30:07;99099.94;;;8.65;100.00
52319;BME280;38258;51.148;14.068;2022-08-11T02:32:38;99059.19;;;8.48;100.00
52319;BME280;38258;51.148;14.068;2022-08-11T02:35:34;99096.28;;;8.82;100.00
52319;BME280;38258;51.148;14.068;2022-08-11T02:38:16;99099.84;;;8.74;100.00
52319;BME280;38258;51.148;14.068;2022-08-11T02:40:49;99099.84;;;8.76;100.00
52319;BME280;38258;51.148;14.068;2022-08-11T02:43:27;99084.22;;;8.73;100.00
52319;BME280;38258;51.148;14.068;2022-08-11T02:46:05;99102.47;;;8.76;100.00
52319;BME280;38258;51.148;14.068;2022-08-11T02:48:51;99105.19;;;8.62;100.00
52319;BME280;38258;51.148;14.068;2022-08-11T02:51:41;99101.75;;;8.57;100.00
52319;BME280;38258;51.148;14.068;2022-08-11T02:54:15;99057.75;;;8.16;100.00
52319;BME280;38258;51.148;14.068;2022-08-11T02:56:53;99074.94;;;8.36;100.00
52319;BME280;38258;51.148;14.068;2022-08-11T02:59:27;99104.41;;;8.49;100.00
52319;BME280;38258;51.148;14.068;2022-08-11T03:02:24;99096.59;;;8.54;100.00
52319;BME280;38258;51.148;14.068;2022-08-11T03:05:03;99069.94;;;8.10;100.00
52319;BME280;38258;51.148;14.068;2022-08-11T03:07:35;99115.00;;;8.24;100.00
52319;BME280;38258;51.148;14.068;2022-08-11T03:10:10;99104.47;;;8.38;100.00
52319;BME280;38258;51.148;14.068;2022-08-11T03:12:46;99099.22;;;8.43;100.00
52319;BME280;38258;51.148;14.068;2022-08-11T03:15:42;99104.50;;;8.37;100.00
52319;BME280;38258;51.148;14.068;2022-08-11T03:18:30;99087.97;;;8.38;100.00
52319;BME280;38258;51.148;14.068;2022-08-11T03:21:11;99100.91;;;8.48;100.00
52319;BME280;38258;51.148;14.068;2022-08-11T03:23:48;99104.34;;;8.58;100.00
52319;BME280;38258;51.148;14.068;2022-08-11T03:26:30;99106.06;;;8.61;100.00
52319;BME280;38258;51.148;14.068;2022-08-11T03:29:07;99101.69;;;8.65;100.00
52319;BME280;38258;51.148;14.068;2022-08-11T03:31:45;99098.28;;;8.58;100.00
52319;BME280;38258;51.148;14.068;2022-08-11T03:34:17;99093.16;;;8.39;100.00
52319;BME280;38258;51.148;14.068;2022-08-11T03:37:18;99103.50;;;8.58;100.00
52319;BME280;38258;51.148;14.068;2022-08-11T03:40:15;99108.66;;;8.62;100.00
52319;BME280;38258;51.148;14.068;2022-08-11T03:43:11;99102.50;;;8.71;100.00
52319;BME280;38258;51.148;14.068;2022-08-11T03:45:54;99101.63;;;8.71;100.00
52319;BME280;38258;51.148;14.068;2022-08-11T03:48:28;99099.13;;;8.60;100.00
52319;BME280;38258;51.148;14.068;2022-08-11T03:51:05;99094.81;;;8.54;100.00
52319;BME280;38258;51.148;14.068;2022-08-11T03:53:48;99089.53;;;8.63;100.00
52319;BME280;38258;51.148;14.068;2022-08-11T04:00:04;99079.88;;;8.73;100.00
52319;BME280;38258;51.148;14.068;2022-08-11T04:03:24;99090.22;;;8.81;100.00
52319;BME280;38258;51.148;14.068;2022-08-11T04:06:21;99097.09;;;8.90;100.00
52319;BME280;38258;51.148;14.068;2022-08-11T04:09:18;99073.66;;;8.87;100.00
52319;BME280;38258;51.148;14.068;2022-08-11T04:12:13;99089.22;;;8.93;100.00
52319;BME280;38258;51.148;14.068;2022-08-11T04:14:59;99077.03;;;8.98;100.00
52319;BME280;38258;51.148;14.068;2022-08-11T04:18:17;99074.38;;;9.01;100.00
52319;BME280;38258;51.148;14.068;2022-08-11T04:20:59;99095.97;;;9.14;100.00
52319;BME280;38258;51.148;14.068;2022-08-11T04:24:05;99073.44;;;9.07;100.00
52319;BME280;38258;51.148;14.068;2022-08-11T04:27:26;99077.50;;;9.33;100.00
52319;BME280;38258;51.148;14.068;2022-08-11T04:30:03;99079.88;;;9.50;100.00
52319;BME280;38258;51.148;14.068;2022-08-11T04:32:56;99096.22;;;9.66;100.00
52319;BME280;38258;51.148;14.068;2022-08-11T04:35:38;99091.50;;;9.92;100.00
52319;BME280;38258;51.148;14.068;2022-08-11T04:45:01;99093.38;;;10.43;100.00
52319;BME280;38258;51.148;14.068;2022-08-11T04:51:00;99085.00;;;10.75;100.00
52319;BME280;38258;51.148;14.068;2022-08-11T04:54:00;99083.31;;;10.71;100.00
52319;BME280;38258;51.148;14.068;2022-08-11T04:56:48;99077.81;;;10.87;100.00
52319;BME280;38258;51.148;14.068;2022-08-11T04:59:51;99054.34;;;10.81;100.00
52319;BME280;38258;51.148;14.068;2022-08-11T05:03:09;99083.22;;;11.23;100.00
52319;BME280;38258;51.148;14.068;2022-08-11T05:06:15;99083.03;;;11.34;100.00
52319;BME280;38258;51.148;14.068;2022-08-11T05:09:03;99092.44;;;11.43;100.00
52319;BME280;38258;51.148;14.068;2022-08-11T05:12:01;99086.88;;;11.58;100.00
52319;BME280;38258;51.148;14.068;2022-08-11T05:14:33;99089.91;;;11.79;100.00
52319;BME280;38258;51.148;14.068;2022-08-11T05:17:26;99098.25;;;11.97;100.00
52319;BME280;38258;51.148;14.068;2022-08-11T05:20:14;99085.50;;;12.22;100.00
52319;BME280;38258;51.148;14.068;2022-08-11T05:23:04;99095.97;;;12.58;100.00
52319;BME280;38258;51.148;14.068;2022-08-11T05:25:51;99081.53;;;12.77;100.00
52319;BME280;38258;51.148;14.068;2022-08-11T05:28:41;99102.69;;;13.04;100.00
52319;BME280;38258;51.148;14.068;2022-08-11T05:31:32;99105.28;;;13.37;100.00
52319;BME280;38258;51.148;14.068;2022-08-11T05:34:21;99106.34;;;13.63;100.00
52319;BME280;38258;51.148;14.068;2022-08-11T05:37:09;99112.38;;;13.95;100.00
52319;BME280;38258;51.148;14.068;2022-08-11T05:39:42;99098.72;;;14.12;100.00
52319;BME280;38258;51.148;14.068;2022-08-11T05:42:30;99105.00;;;14.89;100.00
52319;BME280;38258;51.148;14.068;2022-08-11T05:45:16;99110.75;;;15.25;100.00
52319;BME280;38258;51.148;14.068;2022-08-11T05:48:02;99098.81;;;15.40;100.00
52319;BME280;38258;51.148;14.068;2022-08-11T05:50:52;99110.09;;;15.68;100.00
52319;BME280;38258;51.148;14.068;2022-08-11T05:53:50;99109.69;;;16.03;100.00
52319;BME280;38258;51.148;14.068;2022-08-11T05:56:53;99110.69;;;16.45;94.48
52319;BME280;38258;51.148;14.068;2022-08-11T05:59:23;99120.69;;;16.79;90.12
52319;BME280;38258;51.148;14.068;2022-08-11T06:01:52;99107.53;;;16.99;88.26
52319;BME280;38258;51.148;14.068;2022-08-11T06:04:26;99111.34;;;17.14;85.73
52319;BME280;38258;51.148;14.068;2022-08-11T06:06:56;99116.28;;;17.21;84.52
52319;BME280;38258;51.148;14.068;2022-08-11T06:09:28;99113.34;;;17.48;80.31
52319;BME280;38258;51.148;14.068;2022-08-11T06:11:59;99127.06;;;17.57;80.67
52319;BME280;38258;51.148;14.068;2022-08-11T06:14:28;99122.31;;;17.84;77.18
52319;BME280;38258;51.148;14.068;2022-08-11T06:16:57;99120.84;;;17.96;75.40
52319;BME280;38258;51.148;14.068;2022-08-11T06:19:37;99119.19;;;18.32;71.78
52319;BME280;38258;51.148;14.068;2022-08-11T06:22:06;99124.78;;;18.45;71.56
52319;BME280;38258;51.148;14.068;2022-08-11T06:24:35;99125.63;;;18.63;68.52
52319;BME280;38258;51.148;14.068;2022-08-11T06:27:03;99122.41;;;18.56;68.12
52319;BME280;38258;51.148;14.068;2022-08-11T06:29:35;99129.00;;;18.84;67.40
52319;BME280;38258;51.148;14.068;2022-08-11T06:32:05;99133.22;;;19.24;62.53
52319;BME280;38258;51.148;14.068;2022-08-11T06:34:37;99131.88;;;19.32;63.27
52319;BME280;38258;51.148;14.068;2022-08-11T06:37:18;99122.00;;;19.52;60.98
52319;BME280;38258;51.148;14.068;2022-08-11T06:39:51;99127.56;;;19.47;61.42
52319;BME280;38258;51.148;14.068;2022-08-11T06:45:22;99129.75;;;19.89;57.57
52319;BME280;38258;51.148;14.068;2022-08-11T06:47:51;99132.38;;;20.06;57.15
52319;BME280;38258;51.148;14.068;2022-08-11T06:50:20;99125.94;;;20.11;55.99
52319;BME280;38258;51.148;14.068;2022-08-11T06:53:07;99129.28;;;20.14;55.62
52319;BME280;38258;51.148;14.068;2022-08-11T06:55:38;99131.50;;;20.22;55.36
52319;BME280;38258;51.148;14.068;2022-08-11T06:58:27;99135.94;;;20.38;55.63
52319;BME280;38258;51.148;14.068;2022-08-11T07:01:17;99117.59;;;20.33;57.12
52319;BME280;38258;51.148;14.068;2022-08-11T07:03:47;99132.59;;;20.50;55.48
52319;BME280;38258;51.148;14.068;2022-08-11T07:06:33;99132.44;;;20.68;55.74
52319;BME280;38258;51.148;14.068;2022-08-11T07:09:15;99116.69;;;20.65;55.36
52319;BME280;38258;51.148;14.068;2022-08-11T07:12:38;99130.88;;;21.10;55.53
52319;BME280;38258;51.148;14.068;2022-08-11T07:15:27;99135.66;;;21.19;52.82
52319;BME280;38258;51.148;14.068;2022-08-11T07:18:19;99129.28;;;21.37;50.29
52319;BME280;38258;51.148;14.068;2022-08-11T07:21:14;99133.03;;;21.63;53.19
52319;BME280;38258;51.148;14.068;2022-08-11T07:24:01;99132.84;;;21.66;48.49
52319;BME280;38258;51.148;14.068;2022-08-11T07:26:51;99132.38;;;21.74;49.42
52319;BME280;38258;51.148;14.068;2022-08-11T07:29:37;99129.50;;;21.92;47.18
52319;BME280;38258;51.148;14.068;2022-08-11T07:32:23;99127.91;;;21.89;47.75
52319;BME280;38258;51.148;14.068;2022-08-11T07:34:57;99133.31;;;21.73;46.86
52319;BME280;38258;51.148;14.068;2022-08-11T07:37:25;99118.50;;;22.11;47.37
52319;BME280;38258;51.148;14.068;2022-08-11T07:39:57;99119.78;;;22.33;47.28
52319;BME280;38258;51.148;14.068;2022-08-11T07:42:30;99118.59;;;22.09;46.70
52319;BME280;38258;51.148;14.068;2022-08-11T07:44:59;99113.19;;;22.66;46.02
52319;BME280;38258;51.148;14.068;2022-08-11T07:47:45;99115.50;;;22.57;45.99
52319;BME280;38258;51.148;14.068;2022-08-11T07:50:31;99117.84;;;22.49;45.82
52319;BME280;38258;51.148;14.068;2022-08-11T07:53:17;99114.56;;;23.12;44.72
52319;BME280;38258;51.148;14.068;2022-08-11T07:55:47;99116.97;;;22.89;44.91
52319;BME280;38258;51.148;14.068;2022-08-11T07:58:15;99107.34;;;23.40;44.19
52319;BME280;38258;51.148;14.068;2022-08-11T08:01:00;99116.91;;;23.42;43.74
52319;BME280;38258;51.148;14.068;2022-08-11T08:03:44;99120.81;;;23.89;43.78
52319;BME280;38258;51.148;14.068;2022-08-11T08:06:31;99121.22;;;23.95;43.83
52319;BME280;38258;51.148;14.068;2022-08-11T08:09:18;99118.78;;;23.79;43.57
52319;BME280;38258;51.148;14.068;2022-08-11T08:12:03;99115.94;;;24.20;42.81
52319;BME280;38258;51.148;14.068;2022-08-11T08:14:49;99115.13;;;23.93;42.89
52319;BME280;38258;51.148;14.068;2022-08-11T08:17:34;99111.03;;;23.63;43.10
52319;BME280;38258;51.148;14.068;2022-08-11T08:20:20;99120.63;;;24.16;41.50
52319;BME280;38258;51.148;14.068;2022-08-11T08:22:51;99109.38;;;25.08;40.49
52319;BME280;38258;51.148;14.068;2022-08-11T08:25:22;99104.66;;;24.76;41.12
52319;BME280;38258;51.148;14.068;2022-08-11T08:27:50;99085.66;;;25.15;40.02
52319;BME280;38258;51.148;14.068;2022-08-11T08:30:17;99113.50;;;26.04;39.78
52319;BME280;38258;51.148;14.068;2022-08-11T08:33:02;99108.75;;;25.05;39.63
52319;BME280;38258;51.148;14.068;2022-08-11T08:35:30;99077.56;;;23.83;41.87
52319;BME280;38258;51.148;14.068;2022-08-11T08:37:58;99102.56;;;24.20;43.02
52319;BME280;38258;51.148;14.068;2022-08-11T08:40:25;99101.47;;;25.30;40.90
52319;BME280;38258;51.148;14.068;2022-08-11T08:42:55;99099.63;;;25.30;41.69
52319;BME280;38258;51.148;14.068;2022-08-11T08:45:23;99105.00;;;25.30;40.77
52319;BME280;38258;51.148;14.068;2022-08-11T08:47:58;99100.78;;;26.17;40.37
52319;BME280;38258;51.148;14.068;2022-08-11T08:50:29;99095.59;;;26.16;38.16
52319;BME280;38258;51.148;14.068;2022-08-11T08:53:13;99093.28;;;26.00;38.53
52319;BME280;38258;51.148;14.068;2022-08-11T08:55:45;99105.34;;;24.42;41.17
52319;BME280;38258;51.148;14.068;2022-08-11T08:58:12;99096.16;;;24.22;41.57
52319;BME280;38258;51.148;14.068;2022-08-11T09:00:43;99103.50;;;24.92;41.00
52319;BME280;38258;51.148;14.068;2022-08-11T09:03:11;99102.72;;;25.71;39.29
52319;BME280;38258;51.148;14.068;2022-08-11T09:05:39;99108.38;;;26.23;37.88
52319;BME280;38258;51.148;14.068;2022-08-11T09:08:07;99100.47;;;26.22;38.93
52319;BME280;38258;51.148;14.068;2022-08-11T09:10:36;99095.72;;;26.03;39.12
52319;BME280;38258;51.148;14.068;2022-08-11T09:13:05;99094.59;;;26.17;38.96
52319;BME280;38258;51.148;14.068;2022-08-11T09:15:33;99086.53;;;26.61;38.71
52319;BME280;38258;51.148;14.068;2022-08-11T09:18:03;99098.75;;;26.09;37.66
52319;BME280;38258;51.148;14.068;2022-08-11T09:20:35;99091.22;;;27.54;36.12
52319;BME280;38258;51.148;14.068;2022-08-11T09:23:04;99097.16;;;27.57;36.69
52319;BME280;38258;51.148;14.068;2022-08-11T09:25:54;99080.00;;;26.75;36.57
52319;BME280;38258;51.148;14.068;2022-08-11T09:28:41;99084.69;;;26.61;36.36
52319;BME280;38258;51.148;14.068;2022-08-11T09:31:09;99071.84;;;26.76;36.48
52319;BME280;38258;51.148;14.068;2022-08-11T09:33:38;99084.97;;;26.25;36.39
52319;BME280;38258;51.148;14.068;2022-08-11T09:36:06;99068.75;;;27.55;36.08
52319;BME280;38258;51.148;14.068;2022-08-11T09:38:49;99076.41;;;26.86;35.79
52319;BME280;38258;51.148;14.068;2022-08-11T09:41:36;99080.41;;;27.44;34.59
52319;BME280;38258;51.148;14.068;2022-08-11T09:44:05;99076.22;;;27.20;33.48
52319;BME280;38258;51.148;14.068;2022-08-11T09:46:51;99071.69;;;26.57;34.28
52319;BME280;38258;51.148;14.068;2022-08-11T09:49:20;99064.81;;;28.29;31.99
52319;BME280;38258;51.148;14.068;2022-08-11T09:51:48;99075.44;;;28.50;31.53
52319;BME280;38258;51.148;14.068;2022-08-11T09:54:17;99070.06;;;27.39;30.50
52319;BME280;38258;51.148;14.068;2022-08-11T09:56:45;99078.88;;;26.12;32.53
52319;BME280;38258;51.148;14.068;2022-08-11T09:59:30;99086.56;;;25.61;33.59
52319;BME280;38258;51.148;14.068;2022-08-11T10:02:00;99070.09;;;25.43;34.18
52319;BME280;38258;51.148;14.068;2022-08-11T10:04:32;99075.94;;;25.60;34.03
52319;BME280;38258;51.148;14.068;2022-08-11T10:07:02;99036.13;;;26.22;32.41
52319;BME280;38258;51.148;14.068;2022-08-11T10:09:37;99073.06;;;26.07;33.14
52319;BME280;38258;51.148;14.068;2022-08-11T10:12:09;99070.41;;;25.95;33.16
52319;BME280;38258;51.148;14.068;2022-08-11T10:14:41;99063.47;;;27.12;32.24
52319;BME280;38258;51.148;14.068;2022-08-11T10:17:29;99060.25;;;28.69;29.75
52319;BME280;38258;51.148;14.068;2022-08-11T10:19:57;99056.03;;;28.17;30.45
52319;BME280;38258;51.148;14.068;2022-08-11T10:22:28;99075.91;;;27.13;31.11
52319;BME280;38258;51.148;14.068;2022-08-11T10:25:14;99059.81;;;26.92;32.17
52319;BME280;38258;51.148;14.068;2022-08-11T10:28:02;99056.47;;;26.13;32.29
52319;BME280;38258;51.148;14.068;2022-08-11T10:30:30;99044.50;;;27.14;32.19
52319;BME280;38258;51.148;14.068;2022-08-11T10:33:16;99057.06;;;27.34;33.41
52319;BME280;38258;51.148;14.068;2022-08-11T10:36:02;99051.28;;;27.80;30.40
52319;BME280;38258;51.148;14.068;2022-08-11T10:38:30;99037.63;;;28.52;30.18
52319;BME280;38258;51.148;14.068;2022-08-11T10:40:57;99050.72;;;27.45;31.45
52319;BME280;38258;51.148;14.068;2022-08-11T10:43:44;99038.88;;;28.58;29.11
52319;BME280;38258;51.148;14.068;2022-08-11T10:46:11;99038.69;;;27.80;26.71
52319;BME280;38258;51.148;14.068;2022-08-11T10:48:57;99034.50;;;28.17;26.40
52319;BME280;38258;51.148;14.068;2022-08-11T10:51:25;99040.16;;;28.14;26.86
52319;BME280;38258;51.148;14.068;2022-08-11T10:54:10;99040.41;;;29.38;26.94
52319;BME280;38258;51.148;14.068;2022-08-11T10:56:55;99038.28;;;27.95;28.65
52319;BME280;38258;51.148;14.068;2022-08-11T10:59:42;99030.84;;;28.38;28.06
52319;BME280;38258;51.148;14.068;2022-08-11T11:02:12;99033.34;;;28.10;28.29
52319;BME280;38258;51.148;14.068;2022-08-11T11:04:51;99032.78;;;28.06;27.31
52319;BME280;38258;51.148;14.068;2022-08-11T11:07:28;99025.13;;;28.61;27.53
52319;BME280;38258;51.148;14.068;2022-08-11T11:09:58;99032.16;;;29.01;27.05
52319;BME280;38258;51.148;14.068;2022-08-11T11:12:30;99027.84;;;29.18;26.36
52319;BME280;38258;51.148;14.068;2022-08-11T11:15:30;99023.56;;;29.82;26.08
52319;BME280;38258;51.148;14.068;2022-08-11T11:18:20;99016.34;;;30.00;25.49
52319;BME280;38258;51.148;14.068;2022-08-11T11:20:52;99021.47;;;30.03;24.94
52319;BME280;38258;51.148;14.068;2022-08-11T11:23:24;98998.53;;;28.48;25.65
52319;BME280;38258;51.148;14.068;2022-08-11T11:29:06;98996.41;;;28.61;25.01
52319;BME280;38258;51.148;14.068;2022-08-11T11:31:47;98993.38;;;29.60;24.62
52319;BME280;38258;51.148;14.068;2022-08-11T11:34:35;98990.75;;;29.68;25.64
52319;BME280;38258;51.148;14.068;2022-08-11T11:37:09;98992.72;;;29.38;25.53
52319;BME280;38258;51.148;14.068;2022-08-11T11:39:37;98987.63;;;28.59;26.41
52319;BME280;38258;51.148;14.068;2022-08-11T11:42:06;98996.81;;;28.57;26.38
52319;BME280;38258;51.148;14.068;2022-08-11T11:44:36;98995.59;;;29.65;27.00
52319;BME280;38258;51.148;14.068;2022-08-11T11:47:05;98990.16;;;29.93;25.36
52319;BME280;38258;51.148;14.068;2022-08-11T11:49:32;98996.81;;;29.52;24.13
52319;BME280;38258;51.148;14.068;2022-08-11T11:52:04;98995.88;;;29.05;25.56
52319;BME280;38258;51.148;14.068;2022-08-11T11:54:33;98997.69;;;28.57;26.49
52319;BME280;38258;51.148;14.068;2022-08-11T11:57:01;98999.41;;;28.48;26.72
52319;BME280;38258;51.148;14.068;2022-08-11T11:59:52;98992.69;;;29.48;25.84
52319;BME280;38258;51.148;14.068;2022-08-11T12:02:50;98994.34;;;29.31;25.72
52319;BME280;38258;51.148;14.068;2022-08-11T12:05:17;98983.22;;;29.44;24.50
52319;BME280;38258;51.148;14.068;2022-08-11T12:07:44;98979.59;;;28.30;25.31
52319;BME280;38258;51.148;14.068;2022-08-11T12:10:29;98981.25;;;27.21;27.50
52319;BME280;38258;51.148;14.068;2022-08-11T12:12:58;98976.91;;;27.40;28.17
52319;BME280;38258;51.148;14.068;2022-08-11T12:15:43;98970.78;;;27.88;28.10
52319;BME280;38258;51.148;14.068;2022-08-11T12:18:12;98972.94;;;28.44;27.12
52319;BME280;38258;51.148;14.068;2022-08-11T12:20:39;98961.19;;;28.35;27.31
52319;BME280;38258;51.148;14.068;2022-08-11T12:23:08;98965.34;;;29.15;25.68
52319;BME280;38258;51.148;14.068;2022-08-11T12:25:52;98971.38;;;27.72;28.17
52319;BME280;38258;51.148;14.068;2022-08-11T12:28:36;98959.56;;;27.54;28.07
52319;BME280;38258;51.148;14.068;2022-08-11T12:31:05;98945.41;;;27.51;28.41
52319;BME280;38258;51.148;14.068;2022-08-11T12:33:35;98949.69;;;27.64;28.76
52319;BME280;38258;51.148;14.068;2022-08-11T12:36:03;98951.25;;;27.57;28.25
52319;BME280;38258;51.148;14.068;2022-08-11T12:38:32;98947.59;;;27.77;28.47
52319;BME280;38258;51.148;14.068;2022-08-11T12:41:00;98942.66;;;28.22;28.21
52319;BME280;38258;51.148;14.068;2022-08-11T12:43:45;98943.00;;;29.60;27.16
52319;BME280;38258;51.148;14.068;2022-08-11T12:46:33;98938.13;;;27.93;28.29
52319;BME280;38258;51.148;14.068;2022-08-11T12:49:09;98924.56;;;27.85;28.75
52319;BME280;38258;51.148;14.068;2022-08-11T12:51:57;98935.63;;;29.34;27.83
52319;BME280;38258;51.148;14.068;2022-08-11T12:54:31;98938.41;;;29.15;27.28
52319;BME280;38258;51.148;14.068;2022-08-11T12:57:02;98930.59;;;29.21;26.52
52319;BME280;38258;51.148;14.068;2022-08-11T12:59:48;98921.13;;;28.79;28.34
52319;BME280;38258;51.148;14.068;2022-08-11T13:02:32;98921.94;;;28.90;26.36
52319;BME280;38258;51.148;14.068;2022-08-11T13:05:19;98920.56;;;28.38;27.79
52319;BME280;38258;51.148;14.068;2022-08-11T13:07:47;98911.03;;;29.19;26.62
52319;BME280;38258;51.148;14.068;2022-08-11T13:10:16;98916.69;;;28.98;26.41
52319;BME280;38258;51.148;14.068;2022-08-11T13:13:06;98903.75;;;29.58;25.70
52319;BME280;38258;51.148;14.068;2022-08-11T13:15:33;98907.84;;;29.34;26.92
52319;BME280;38258;51.148;14.068;2022-08-11T13:18:01;98911.09;;;29.38;26.74
52319;BME280;38258;51.148;14.068;2022-08-11T13:20:29;98907.97;;;29.14;27.66
52319;BME280;38258;51.148;14.068;2022-08-11T13:22:57;98894.84;;;29.01;27.51
52319;BME280;38258;51.148;14.068;2022-08-11T13:25:27;98910.69;;;29.04;27.15
52319;BME280;38258;51.148;14.068;2022-08-11T13:27:56;98914.88;;;28.79;27.02
52319;BME280;38258;51.148;14.068;2022-08-11T13:30:25;98890.56;;;28.81;27.62
52319;BME280;38258;51.148;14.068;2022-08-11T13:33:10;98899.06;;;27.59;28.73
52319;BME280;38258;51.148;14.068;2022-08-11T13:35:39;98906.41;;;28.84;27.21
52319;BME280;38258;51.148;14.068;2022-08-11T13:38:07;98890.31;;;28.64;27.89
52319;BME280;38258;51.148;14.068;2022-08-11T13:40:36;98886.06;;;28.61;27.63
52319;BME280;38258;51.148;14.068;2022-08-11T13:43:03;98890.72;;;28.21;28.12
52319;BME280;38258;51.148;14.068;2022-08-11T13:45:30;98889.34;;;29.49;28.03
52319;BME280;38258;51.148;14.068;2022-08-11T13:47:58;98883.44;;;28.89;26.93
52319;BME280;38258;51.148;14.068;2022-08-11T13:50:26;98878.78;;;29.56;27.35
52319;BME280;38258;51.148;14.068;2022-08-11T13:53:16;98884.81;;;29.40;27.92
52319;BME280;38258;51.148;14.068;2022-08-11T13:55:43;98881.00;;;28.58;27.27
52319;BME280;38258;51.148;14.068;2022-08-11T13:58:11;98872.78;;;27.92;28.32
52319;BME280;38258;51.148;14.068;2022-08-11T14:00:39;98880.69;;;27.84;29.01
52319;BME280;38258;51.148;14.068;2022-08-11T14:03:08;98874.84;;;28.28;28.65
52319;BME280;38258;51.148;14.068;2022-08-11T14:05:38;98891.84;;;28.67;27.94
52319;BME280;38258;51.148;14.068;2022-08-11T14:08:08;98864.03;;;29.32;27.03
52319;BME280;38258;51.148;14.068;2022-08-11T14:10:37;98886.94;;;29.18;26.20
52319;BME280;38258;51.148;14.068;2022-08-11T14:13:07;98880.56;;;28.63;26.83